Austin (LCRA Redbud)'s Hourly Summary for Monday, March 13, 2017
Hour Temp
(f)
RH
(%)
Solar Rad.
(MJ/m2)
Rainfall
(in)
Wind
(mph)
3/13/2017 12:00 AM 48 90 0 0 1.63
3/13/2017 1:00 AM 48 93 0 0 1.66
3/13/2017 2:00 AM 48 94 0 0 0.37
3/13/2017 3:00 AM 48 97 0 0 0.79
3/13/2017 4:00 AM 49 98 0 0 0.96
3/13/2017 5:00 AM 49 99 0 0 0.16
3/13/2017 6:00 AM 49 99 0 0 0.37
3/13/2017 7:00 AM 49 99 0 0 0.82
3/13/2017 8:00 AM 50 98 0 0 1.85
3/13/2017 9:00 AM 50 98 0.07 0 0.57
3/13/2017 10:00 AM 51 95 0.21 0 0.49
3/13/2017 11:00 AM 52 94 0.5 0 2.09
3/13/2017 12:00 PM 56 71 1.86 0 2.84
3/13/2017 1:00 PM 60 60 1.96 0 4.31
3/13/2017 2:00 PM 63 51 2.92 0 3.41
3/13/2017 3:00 PM 67 46 3.08 0 3.94
3/13/2017 4:00 PM 67 44 2.2 0 4.37
3/13/2017 5:00 PM 68 44 2.17 0 4.31
3/13/2017 6:00 PM 69 39 1.56 0 4.6
3/13/2017 7:00 PM 69 40 0.78 0 1.9
3/13/2017 8:00 PM 65 45 0.1 0 0.96
3/13/2017 9:00 PM 58 63 0 0 0.01
3/13/2017 10:00 PM 54 83 0 0 0.06
3/13/2017 11:00 PM 52 90 0 0 0.01
Data Summary 55 76 17.41 0.00 1.77